createdAt,value
2018-02-22T01:41:13.194Z,-3.26
2018-02-22T01:41:13.766Z,-3.29
2018-02-22T01:41:14.366Z,-3.26
2018-02-22T01:41:14.965Z,-3.28
2018-02-22T01:41:15.565Z,-3.31
2018-02-22T01:41:16.167Z,-3.33
2018-02-22T01:41:16.764Z,-3.29
2018-02-22T01:41:17.364Z,-3.26
2018-02-22T01:42:10.821Z,-3.23
2018-02-22T01:42:11.418Z,-3.23
2018-02-22T01:42:12.018Z,-3.32
2018-02-22T01:42:12.617Z,-3.33
2018-02-22T01:42:13.216Z,-3.25
2018-02-22T01:42:13.816Z,-3.33
2018-02-22T01:42:14.416Z,-3.33
2018-02-22T01:42:15.016Z,-3.26
2018-02-22T01:43:09.500Z,-3.31
2018-02-22T01:43:10.095Z,-3.26
2018-02-22T01:43:10.693Z,-3.33
2018-02-22T01:43:11.299Z,-3.31
2018-02-22T01:43:11.892Z,-3.31
2018-02-22T01:43:12.493Z,-3.17
2018-02-22T01:43:13.092Z,-3.25
2018-02-22T01:43:13.691Z,-3.29
2018-02-22T01:44:07.151Z,-3.35
2018-02-22T01:44:07.747Z,-3.32
2018-02-22T01:44:08.345Z,-3.23
2018-02-22T01:44:08.948Z,-3.25
2018-02-22T01:44:09.546Z,-3.33
2018-02-22T01:44:10.144Z,-3.33
2018-02-22T01:44:10.743Z,-3.31
2018-02-22T01:44:11.345Z,-3.33
2018-02-22T01:45:05.879Z,-3.31
2018-02-22T01:45:06.425Z,-3.32
2018-02-22T01:45:07.023Z,-3.26
2018-02-22T01:45:07.633Z,-3.35
2018-02-22T01:45:08.221Z,-3.29
2018-02-22T01:45:08.820Z,-3.36
2018-02-22T01:45:09.421Z,-3.31
2018-02-22T01:45:10.017Z,-3.32
2018-02-22T01:46:03.478Z,-3.36
2018-02-22T01:46:04.076Z,-3.36
2018-02-22T01:46:04.674Z,-3.32
2018-02-22T01:46:05.273Z,-3.29
2018-02-22T01:46:05.875Z,-3.38
2018-02-22T01:46:06.473Z,-3.32
2018-02-22T01:46:07.076Z,-3.28
2018-02-22T01:46:07.673Z,-3.26
2018-02-22T01:47:01.131Z,-3.28
2018-02-22T01:47:01.727Z,-3.35
2018-02-22T01:47:02.325Z,-3.25
2018-02-22T01:47:02.926Z,-3.32
2018-02-22T01:47:03.526Z,-3.39
2018-02-22T01:47:04.125Z,-3.36
2018-02-22T01:47:04.725Z,-3.26
2018-02-22T01:47:05.325Z,-3.31
2018-02-22T01:47:59.806Z,-3.31
2018-02-22T01:48:00.403Z,-3.36
2018-02-22T01:48:01.002Z,-3.32
2018-02-22T01:48:01.602Z,-3.32
2018-02-22T01:48:02.201Z,-3.32
2018-02-22T01:48:02.801Z,-3.29
2018-02-22T01:48:03.401Z,-3.35
2018-02-22T01:48:04.000Z,-3.28
2018-02-22T01:48:57.458Z,-3.33
2018-02-22T01:48:58.055Z,-3.32
2018-02-22T01:48:58.653Z,-3.38
2018-02-22T01:48:59.255Z,-3.29
2018-02-22T01:48:59.857Z,-3.38
2018-02-22T01:49:00.453Z,-3.25
2018-02-22T01:49:01.053Z,-3.39
2018-02-22T01:49:01.655Z,-3.31
2018-02-22T01:49:56.134Z,-3.32
2018-02-22T01:49:56.729Z,-3.32
2018-02-22T01:49:57.328Z,-3.32
2018-02-22T01:49:57.936Z,-3.31
2018-02-22T01:49:58.528Z,-3.28
2018-02-22T01:49:59.128Z,-3.25
2018-02-22T01:49:59.733Z,-3.32
2018-02-22T01:50:00.327Z,-3.36
2018-02-22T01:50:54.840Z,-3.23
2018-02-22T01:50:55.405Z,-3.31
2018-02-22T01:50:56.004Z,-3.28
2018-02-22T01:50:56.605Z,-3.26
2018-02-22T01:50:57.204Z,-3.33
2018-02-22T01:50:57.804Z,-3.32
2018-02-22T01:50:58.404Z,-3.32
2018-02-22T01:50:59.003Z,-3.31
2018-02-22T01:51:53.510Z,-3.23
2018-02-22T01:51:54.081Z,-3.23
2018-02-22T01:51:54.682Z,-3.28
2018-02-22T01:51:55.281Z,-3.23
2018-02-22T01:51:55.882Z,-3.23
2018-02-22T01:51:56.481Z,-3.32
2018-02-22T01:51:57.082Z,-3.23
2018-02-22T01:51:57.680Z,-3.22
2018-02-22T01:52:52.187Z,-3.31
2018-02-22T01:52:52.758Z,-3.26
2018-02-22T01:52:53.358Z,-3.25
2018-02-22T01:52:53.957Z,-3.33
2018-02-22T01:52:54.557Z,-3.23
2018-02-22T01:52:55.158Z,-3.29
2018-02-22T01:52:55.756Z,-3.26
2018-02-22T01:52:56.359Z,-3.29
2018-02-22T01:53:50.861Z,-3.31
2018-02-22T01:53:51.432Z,-3.22
2018-02-22T01:53:52.033Z,-3.25
2018-02-22T01:53:52.632Z,-3.18
2018-02-22T01:53:53.231Z,-3.26
2018-02-22T01:53:53.833Z,-3.26
2018-02-22T01:53:54.432Z,-3.25
2018-02-22T01:53:55.034Z,-3.31
2018-02-22T01:54:49.536Z,-3.17
2018-02-22T01:54:50.114Z,-3.26
2018-02-22T01:54:50.707Z,-3.29
2018-02-22T01:54:51.307Z,-3.14
2018-02-22T01:54:51.908Z,-3.17
2018-02-22T01:54:52.508Z,-3.20
2018-02-22T01:54:53.109Z,-3.26
2018-02-22T01:54:53.709Z,-3.36
2018-02-22T01:55:47.165Z,-3.25
2018-02-22T01:55:47.761Z,-3.31
2018-02-22T01:55:48.361Z,-3.33
2018-02-22T01:55:48.961Z,-3.20
2018-02-22T01:55:49.561Z,-3.26
2018-02-22T01:55:50.163Z,-3.33
2018-02-22T01:55:50.759Z,-3.31
2018-02-22T01:55:51.359Z,-3.31
2018-02-22T01:56:45.865Z,-3.15
2018-02-22T01:56:46.438Z,-3.15
2018-02-22T01:56:47.037Z,-3.13
2018-02-22T01:56:47.635Z,-3.11
2018-02-22T01:56:48.241Z,-3.05
2018-02-22T01:56:48.838Z,-3.10
2018-02-22T01:56:49.435Z,-3.13
2018-02-22T01:56:50.035Z,-3.10
2018-02-22T01:57:43.492Z,-3.07
2018-02-22T01:57:44.091Z,-3.00
2018-02-22T01:57:44.689Z,-3.05
2018-02-22T01:57:45.293Z,-3.02
2018-02-22T01:57:45.889Z,-3.10
2018-02-22T01:57:46.489Z,-2.93
2018-02-22T01:57:47.088Z,-2.96
2018-02-22T01:57:47.687Z,-3.00
2018-02-22T01:58:42.167Z,-3.02
2018-02-22T01:58:42.767Z,-2.97
2018-02-22T01:58:43.364Z,-2.96
2018-02-22T01:58:43.964Z,-3.00
2018-02-22T01:58:44.564Z,-2.94
2018-02-22T01:58:45.166Z,-3.00
2018-02-22T01:58:45.764Z,-2.90
2018-02-22T01:58:46.369Z,-2.96
2018-02-22T01:59:39.820Z,-2.90
2018-02-22T01:59:40.420Z,-2.94
2018-02-22T01:59:41.016Z,-2.97
2018-02-22T01:59:41.616Z,-2.92
2018-02-22T01:59:42.216Z,-2.94
2018-02-22T01:59:42.816Z,-2.87
2018-02-22T01:59:43.415Z,-2.94
2018-02-22T01:59:44.016Z,-2.97
2018-02-22T02:00:38.495Z,-2.89
2018-02-22T02:00:39.091Z,-2.96
2018-02-22T02:00:39.692Z,-2.94
2018-02-22T02:00:40.291Z,-2.94
2018-02-22T02:00:40.892Z,-3.02
2018-02-22T02:00:41.490Z,-2.94
2018-02-22T02:00:42.089Z,-2.99
2018-02-22T02:00:42.691Z,-2.96
2018-02-22T02:01:37.202Z,-2.96
2018-02-22T02:01:37.770Z,-2.94
2018-02-22T02:01:38.368Z,-2.97
2018-02-22T02:01:38.966Z,-2.97
2018-02-22T02:01:39.566Z,-2.99
2018-02-22T02:01:40.167Z,-2.97
2018-02-22T02:01:40.765Z,-2.97
2018-02-22T02:01:41.368Z,-2.93
2018-02-22T02:02:35.847Z,-2.92
2018-02-22T02:02:36.443Z,-2.93
2018-02-22T02:02:37.043Z,-2.85
2018-02-22T02:02:37.642Z,-2.92
2018-02-22T02:02:38.242Z,-2.96
2018-02-22T02:02:38.842Z,-2.97
2018-02-22T02:02:39.442Z,-3.02
2018-02-22T02:02:40.043Z,-2.93
2018-02-22T02:03:33.498Z,-2.94
2018-02-22T02:03:34.104Z,-2.92
2018-02-22T02:03:34.695Z,-2.87
2018-02-22T02:03:35.296Z,-2.87
2018-02-22T02:03:35.894Z,-2.87
2018-02-22T02:03:36.494Z,-2.93
2018-02-22T02:03:37.095Z,-2.82
2018-02-22T02:03:37.694Z,-2.96
2018-02-22T02:04:31.150Z,-2.85
2018-02-22T02:04:31.749Z,-2.76
2018-02-22T02:04:32.347Z,-2.78
2018-02-22T02:04:32.949Z,-2.81
2018-02-22T02:04:33.545Z,-2.82
2018-02-22T02:04:34.150Z,-2.81
2018-02-22T02:04:34.745Z,-2.86
2018-02-22T02:04:35.349Z,-2.82
2018-02-22T02:05:28.802Z,-2.85
2018-02-22T02:05:29.404Z,-2.82
2018-02-22T02:05:29.998Z,-2.75
2018-02-22T02:05:30.598Z,-2.78
2018-02-22T02:05:31.197Z,-2.81
2018-02-22T02:05:31.810Z,-2.72
2018-02-22T02:05:32.397Z,-2.76
2018-02-22T02:05:33.013Z,-2.76
2018-02-22T02:06:27.479Z,-2.72
2018-02-22T02:06:28.075Z,-2.74
2018-02-22T02:06:28.676Z,-2.68
2018-02-22T02:06:29.273Z,-2.75
2018-02-22T02:06:29.873Z,-2.66
2018-02-22T02:06:30.472Z,-2.64
2018-02-22T02:06:31.072Z,-2.63
2018-02-22T02:06:31.673Z,-2.66
2018-02-22T02:07:25.153Z,-2.57
2018-02-22T02:07:25.728Z,-2.72
2018-02-22T02:07:26.326Z,-2.63
2018-02-22T02:07:26.925Z,-2.63
2018-02-22T02:07:27.525Z,-2.68
2018-02-22T02:07:28.125Z,-2.58
2018-02-22T02:07:28.725Z,-2.63
2018-02-22T02:07:29.325Z,-2.63
2018-02-22T02:08:22.781Z,-2.72
2018-02-22T02:08:23.425Z,-2.74
2018-02-22T02:08:23.983Z,-2.61
2018-02-22T02:08:24.574Z,-2.61
2018-02-22T02:08:25.225Z,-2.57
2018-02-22T02:08:25.785Z,-2.66
2018-02-22T02:08:26.376Z,-2.58
2018-02-22T02:08:26.976Z,-2.63
2018-02-22T02:09:33.137Z,-2.75
2018-02-22T02:09:33.731Z,-2.64
2018-02-22T02:09:34.326Z,-2.66
2018-02-22T02:09:34.926Z,-2.64
2018-02-22T02:09:35.527Z,-2.58
2018-02-22T02:09:36.126Z,-2.58
2018-02-22T02:09:36.725Z,-2.60
2018-02-22T02:09:37.325Z,-2.63
2018-02-22T02:10:30.781Z,-2.64
2018-02-22T02:10:31.381Z,-2.61
2018-02-22T02:10:31.978Z,-2.66
2018-02-22T02:10:32.579Z,-2.57
2018-02-22T02:10:33.178Z,-2.58
2018-02-22T02:10:33.777Z,-2.64
2018-02-22T02:10:34.397Z,-2.64
2018-02-22T02:10:34.978Z,-2.60
2018-02-22T02:11:29.454Z,-2.68
2018-02-22T02:11:30.052Z,-2.71
2018-02-22T02:11:30.653Z,-2.68
2018-02-22T02:11:31.251Z,-2.68
2018-02-22T02:11:31.852Z,-2.64
2018-02-22T02:11:32.452Z,-2.66
2018-02-22T02:11:33.051Z,-2.64
2018-02-22T02:11:33.695Z,-2.57
2018-02-22T02:12:27.142Z,-2.61
2018-02-22T02:12:27.710Z,-2.66
2018-02-22T02:12:28.305Z,-2.72
2018-02-22T02:12:28.904Z,-2.61
2018-02-22T02:12:29.507Z,-2.66
2018-02-22T02:12:30.105Z,-2.61
2018-02-22T02:12:30.704Z,-2.64
2018-02-22T02:12:31.304Z,-2.54
2018-02-22T02:13:24.760Z,-2.69
2018-02-22T02:13:25.357Z,-2.63
2018-02-22T02:13:25.957Z,-2.60
2018-02-22T02:13:26.559Z,-2.60
2018-02-22T02:13:27.160Z,-2.61
2018-02-22T02:13:27.756Z,-2.63
2018-02-22T02:13:28.356Z,-2.63
2018-02-22T02:13:28.956Z,-2.61
2018-02-22T02:14:23.435Z,-2.66
2018-02-22T02:14:24.033Z,-2.58
2018-02-22T02:14:24.632Z,-2.60
2018-02-22T02:14:25.231Z,-2.61
2018-02-22T02:14:25.832Z,-2.66
2018-02-22T02:14:26.431Z,-2.61
2018-02-22T02:14:27.031Z,-2.63
2018-02-22T02:14:27.632Z,-2.61
2018-02-22T02:15:22.110Z,-2.63
2018-02-22T02:15:22.711Z,-2.57
2018-02-22T02:15:23.309Z,-2.60
2018-02-22T02:15:23.908Z,-2.63
2018-02-22T02:15:24.507Z,-2.63
2018-02-22T02:15:25.106Z,-2.58
2018-02-22T02:15:25.706Z,-2.63
2018-02-22T02:15:26.307Z,-2.63
2018-02-22T02:16:20.788Z,-2.63
2018-02-22T02:16:21.383Z,-2.63
2018-02-22T02:16:21.984Z,-2.63
2018-02-22T02:16:22.583Z,-2.63
2018-02-22T02:16:23.185Z,-2.66
2018-02-22T02:16:23.785Z,-2.56
2018-02-22T02:16:24.382Z,-2.68
2018-02-22T02:16:24.982Z,-2.61
2018-02-22T02:17:19.461Z,-2.56
2018-02-22T02:17:20.060Z,-2.56
2018-02-22T02:17:20.658Z,-2.56
2018-02-22T02:17:21.258Z,-2.51
2018-02-22T02:17:21.858Z,-2.57
2018-02-22T02:17:22.458Z,-2.57
2018-02-22T02:17:23.058Z,-2.56
2018-02-22T02:17:23.658Z,-2.56
2018-02-22T02:18:18.170Z,-2.48
2018-02-22T02:18:18.739Z,-2.54
2018-02-22T02:18:19.335Z,-2.40
2018-02-22T02:18:19.934Z,-2.47
2018-02-22T02:18:20.535Z,-2.47
2018-02-22T02:18:21.136Z,-2.45
2018-02-22T02:18:21.734Z,-2.47
2018-02-22T02:18:22.334Z,-2.48
2018-02-22T02:19:15.818Z,-2.47
2018-02-22T02:19:16.429Z,-2.48
2018-02-22T02:19:16.986Z,-2.48
2018-02-22T02:19:17.586Z,-2.45
2018-02-22T02:19:18.187Z,-2.51
2018-02-22T02:19:18.786Z,-2.40
2018-02-22T02:19:19.385Z,-2.47
2018-02-22T02:19:19.986Z,-2.50
2018-02-22T02:20:15.006Z,-2.43
2018-02-22T02:20:15.576Z,-2.39
2018-02-22T02:20:16.176Z,-2.42
2018-02-22T02:20:16.774Z,-2.42
2018-02-22T02:20:17.374Z,-2.35
2018-02-22T02:20:17.974Z,-2.40
2018-02-22T02:20:18.573Z,-2.38
2018-02-22T02:21:12.015Z,-2.29
2018-02-22T02:21:12.616Z,-2.33
2018-02-22T02:21:13.212Z,-2.29
2018-02-22T02:21:13.811Z,-2.28
2018-02-22T02:21:14.414Z,-2.36
2018-02-22T02:21:15.012Z,-2.26
2018-02-22T02:21:15.613Z,-2.36
2018-02-22T02:21:16.212Z,-2.33
2018-02-22T02:22:09.668Z,-2.23
2018-02-22T02:22:10.267Z,-2.20
2018-02-22T02:22:10.865Z,-2.26
2018-02-22T02:22:11.463Z,-2.32
2018-02-22T02:22:12.064Z,-2.24
2018-02-22T02:22:12.663Z,-2.21
2018-02-22T02:22:13.276Z,-2.17
2018-02-22T02:22:13.864Z,-2.21
2018-02-22T02:23:07.321Z,-2.26
2018-02-22T02:23:07.919Z,-2.17
2018-02-22T02:23:08.515Z,-2.23
2018-02-22T02:23:09.115Z,-2.18
2018-02-22T02:23:09.716Z,-2.32
2018-02-22T02:23:10.315Z,-2.23
2018-02-22T02:23:10.914Z,-2.21
2018-02-22T02:23:11.515Z,-2.23
2018-02-22T02:24:06.021Z,-2.29
2018-02-22T02:24:06.595Z,-2.32
2018-02-22T02:24:07.193Z,-2.24
2018-02-22T02:24:07.789Z,-2.33
2018-02-22T02:24:08.389Z,-2.29
2018-02-22T02:24:08.988Z,-2.32
2018-02-22T02:24:09.588Z,-2.18
2018-02-22T02:24:10.188Z,-2.29
2018-02-22T02:25:03.646Z,-2.33
2018-02-22T02:25:04.249Z,-2.33
2018-02-22T02:25:04.842Z,-2.28
2018-02-22T02:25:05.445Z,-2.38
2018-02-22T02:25:06.044Z,-2.23
2018-02-22T02:25:06.642Z,-2.24
2018-02-22T02:25:07.241Z,-2.35
2018-02-22T02:25:07.841Z,-2.26
2018-02-22T02:26:02.321Z,-2.32
2018-02-22T02:26:02.917Z,-2.38
2018-02-22T02:26:03.518Z,-2.38
2018-02-22T02:26:04.118Z,-2.35
2018-02-22T02:26:04.717Z,-2.26
2018-02-22T02:26:05.316Z,-2.29
2018-02-22T02:26:05.917Z,-2.26
2018-02-22T02:26:06.521Z,-2.21
2018-02-22T02:26:59.974Z,-2.32
2018-02-22T02:27:00.581Z,-2.29
2018-02-22T02:27:01.172Z,-2.26
2018-02-22T02:27:01.769Z,-2.33
2018-02-22T02:27:02.369Z,-2.33
2018-02-22T02:27:02.970Z,-2.29
2018-02-22T02:27:03.569Z,-2.24
2018-02-22T02:27:04.168Z,-2.26
2018-02-22T02:27:57.624Z,-2.32
2018-02-22T02:27:58.223Z,-2.18
2018-02-22T02:27:58.822Z,-2.38
2018-02-22T02:27:59.425Z,-2.26
2018-02-22T02:28:00.025Z,-2.26
2018-02-22T02:28:00.620Z,-2.24
2018-02-22T02:28:01.219Z,-2.24
2018-02-22T02:28:01.820Z,-2.24
2018-02-22T02:28:55.311Z,-2.24
2018-02-22T02:28:55.875Z,-2.21
2018-02-22T02:28:56.473Z,-2.16
2018-02-22T02:28:57.082Z,-2.21
2018-02-22T02:28:57.673Z,-2.21
2018-02-22T02:28:58.281Z,-2.24
2018-02-22T02:28:58.873Z,-2.16
2018-02-22T02:28:59.473Z,-2.20
2018-02-22T02:29:53.950Z,-2.24
2018-02-22T02:29:54.551Z,-2.24
2018-02-22T02:29:55.149Z,-2.18
2018-02-22T02:29:55.749Z,-2.16
2018-02-22T02:29:56.348Z,-2.21
2018-02-22T02:29:56.949Z,-2.20
2018-02-22T02:29:57.548Z,-2.11
2018-02-22T02:29:58.147Z,-2.18
2018-02-22T02:30:52.628Z,-2.14
2018-02-22T02:30:53.223Z,-2.20
2018-02-22T02:30:53.826Z,-2.20
2018-02-22T02:30:54.425Z,-2.17
2018-02-22T02:30:55.023Z,-2.14
2018-02-22T02:30:55.624Z,-2.14
2018-02-22T02:30:56.222Z,-2.26
2018-02-22T02:30:56.826Z,-2.13
2018-02-22T02:31:50.281Z,-2.21
2018-02-22T02:31:50.880Z,-2.24
2018-02-22T02:31:51.476Z,-2.26
2018-02-22T02:31:52.078Z,-2.21
2018-02-22T02:31:52.675Z,-2.20
2018-02-22T02:31:53.284Z,-2.24
2018-02-22T02:31:53.886Z,-2.18
2018-02-22T02:31:54.475Z,-2.23
2018-02-22T02:32:48.958Z,-2.23
2018-02-22T02:32:49.556Z,-2.26
2018-02-22T02:32:50.161Z,-2.24
2018-02-22T02:32:50.751Z,-2.21
2018-02-22T02:32:51.351Z,-2.17
2018-02-22T02:32:51.953Z,-2.24
2018-02-22T02:32:52.551Z,-2.24
2018-02-22T02:32:53.151Z,-2.17
2018-02-22T02:33:46.607Z,-2.32
2018-02-22T02:33:47.207Z,-2.28
2018-02-22T02:33:47.806Z,-2.21
2018-02-22T02:33:48.406Z,-2.20
2018-02-22T02:33:49.003Z,-2.32
2018-02-22T02:33:49.603Z,-2.18
2018-02-22T02:33:50.204Z,-2.20
2018-02-22T02:33:50.804Z,-2.28
2018-02-22T02:34:45.309Z,-2.26
2018-02-22T02:34:45.882Z,-2.20
2018-02-22T02:34:46.481Z,-2.32
2018-02-22T02:34:47.078Z,-2.23
2018-02-22T02:34:47.679Z,-2.21
2018-02-22T02:34:48.281Z,-2.33
2018-02-22T02:34:48.877Z,-2.32
2018-02-22T02:34:49.478Z,-2.28
2018-02-22T02:35:43.958Z,-2.21
2018-02-22T02:35:44.558Z,-2.36
2018-02-22T02:35:45.167Z,-2.32
2018-02-22T02:35:45.757Z,-2.26
2018-02-22T02:35:46.354Z,-2.26
2018-02-22T02:35:46.953Z,-2.21
2018-02-22T02:35:47.553Z,-2.24
2018-02-22T02:35:48.154Z,-2.28
2018-02-22T02:36:42.633Z,-2.32
2018-02-22T02:36:43.237Z,-2.24
2018-02-22T02:36:43.831Z,-2.29
2018-02-22T02:36:44.431Z,-2.28
2018-02-22T02:36:45.038Z,-2.26
2018-02-22T02:36:45.631Z,-2.23
2018-02-22T02:36:46.229Z,-2.28
2018-02-22T02:36:46.829Z,-2.23
2018-02-22T02:54:09.599Z,-2.66
2018-02-22T02:54:10.174Z,-2.74
2018-02-22T02:54:10.771Z,-2.81
2018-02-22T02:54:11.375Z,-2.69
2018-02-22T02:54:11.976Z,-2.76
2018-02-22T02:54:12.573Z,-2.69
2018-02-22T02:54:13.170Z,-2.75
2018-02-22T02:54:13.769Z,-2.63
2018-02-22T02:55:07.252Z,-2.79
2018-02-22T02:55:07.825Z,-2.82
2018-02-22T02:55:08.427Z,-2.81
2018-02-22T02:55:09.027Z,-2.81
2018-02-22T02:55:09.624Z,-2.74
2018-02-22T02:55:10.223Z,-2.81
2018-02-22T02:55:10.826Z,-2.81
2018-02-22T02:55:11.426Z,-2.79
2018-02-22T02:56:04.908Z,-2.82
2018-02-22T02:56:05.477Z,-2.86
2018-02-22T02:56:06.078Z,-2.85
2018-02-22T02:56:06.676Z,-2.85
2018-02-22T02:56:07.275Z,-2.75
2018-02-22T02:56:07.889Z,-2.81
2018-02-22T02:56:08.478Z,-2.86
2018-02-22T02:56:09.074Z,-2.85
2018-02-22T02:57:02.559Z,-2.94
2018-02-22T02:57:03.129Z,-2.94
2018-02-22T02:57:03.728Z,-2.86
2018-02-22T02:57:04.327Z,-2.81
2018-02-22T02:57:04.929Z,-2.86
2018-02-22T02:57:05.530Z,-2.86
2018-02-22T02:57:06.127Z,-2.86
2018-02-22T02:57:06.726Z,-2.92
2018-02-22T02:58:00.210Z,-2.89
2018-02-22T02:58:00.781Z,-2.94
2018-02-22T02:58:01.386Z,-2.90
2018-02-22T02:58:01.980Z,-2.93
2018-02-22T02:58:02.580Z,-2.92
2018-02-22T02:58:03.181Z,-2.93
2018-02-22T02:58:03.779Z,-2.94
2018-02-22T02:58:04.380Z,-2.87
2018-02-22T02:58:57.861Z,-2.93
2018-02-22T02:58:58.433Z,-2.90
2018-02-22T02:58:59.033Z,-2.94
2018-02-22T02:58:59.633Z,-2.87
2018-02-22T02:59:00.232Z,-2.93
2018-02-22T02:59:00.830Z,-2.92
2018-02-22T02:59:01.432Z,-2.93
2018-02-22T02:59:02.036Z,-2.90
2018-02-22T02:59:55.517Z,-2.90
2018-02-22T02:59:56.085Z,-2.97
2018-02-22T02:59:56.684Z,-2.97
2018-02-22T02:59:57.287Z,-2.94
2018-02-22T02:59:57.895Z,-2.87
2018-02-22T02:59:58.484Z,-2.93
2018-02-22T02:59:59.086Z,-2.87
2018-02-22T02:59:59.682Z,-2.94
2018-02-22T03:00:54.164Z,-2.93
2018-02-22T03:00:54.759Z,-2.90
2018-02-22T03:00:55.369Z,-2.86
2018-02-22T03:00:55.959Z,-2.86
2018-02-22T03:00:56.561Z,-2.96
2018-02-22T03:00:57.158Z,-2.94
2018-02-22T03:00:57.760Z,-2.97
2018-02-22T03:00:58.363Z,-2.97
2018-02-22T03:01:51.840Z,-2.94
2018-02-22T03:01:52.412Z,-2.97
2018-02-22T03:01:53.012Z,-2.97
2018-02-22T03:01:53.614Z,-2.97
2018-02-22T03:01:54.212Z,-2.92
2018-02-22T03:01:54.812Z,-2.92
2018-02-22T03:01:55.412Z,-2.89
2018-02-22T03:01:56.013Z,-2.96
2018-02-22T03:02:49.468Z,-2.89
2018-02-22T03:02:50.066Z,-2.89
2018-02-22T03:02:50.665Z,-2.90
2018-02-22T03:02:51.264Z,-2.92
2018-02-22T03:02:51.864Z,-2.90
2018-02-22T03:02:52.464Z,-2.89
2018-02-22T03:02:53.064Z,-2.94
2018-02-22T03:02:53.668Z,-2.87
2018-02-22T03:03:48.154Z,-2.93
2018-02-22T03:03:48.740Z,-2.94
2018-02-22T03:03:49.339Z,-2.96
2018-02-22T03:03:49.943Z,-2.89
2018-02-22T03:03:50.539Z,-2.96
2018-02-22T03:03:51.137Z,-2.96
2018-02-22T03:03:51.740Z,-2.97
2018-02-22T03:03:52.338Z,-2.96
2018-02-22T03:04:46.822Z,-3.02
2018-02-22T03:04:47.415Z,-2.92
2018-02-22T03:04:48.020Z,-2.92
2018-02-22T03:04:48.616Z,-2.94
2018-02-22T03:04:49.216Z,-3.04
2018-02-22T03:04:49.816Z,-2.89
2018-02-22T03:04:50.415Z,-2.96
2018-02-22T03:04:51.016Z,-2.92
2018-02-22T03:05:44.472Z,-3.00
2018-02-22T03:05:45.071Z,-2.99
2018-02-22T03:05:45.669Z,-3.02
2018-02-22T03:05:46.269Z,-3.00
2018-02-22T03:05:46.868Z,-3.04
2018-02-22T03:05:47.468Z,-3.08
2018-02-22T03:05:48.067Z,-2.99
2018-02-22T03:05:48.665Z,-2.94
2018-02-22T03:06:42.149Z,-3.05
2018-02-22T03:06:42.723Z,-3.08
2018-02-22T03:06:43.324Z,-3.00
2018-02-22T03:06:43.921Z,-2.96
2018-02-22T03:06:44.520Z,-3.02
2018-02-22T03:06:45.118Z,-3.05
2018-02-22T03:06:45.718Z,-3.04
2018-02-22T03:06:46.319Z,-2.99
2018-02-22T03:07:39.774Z,-3.05
2018-02-22T03:07:40.375Z,-3.00
2018-02-22T03:07:40.976Z,-3.05
2018-02-22T03:07:41.570Z,-3.04
2018-02-22T03:07:42.171Z,-3.04
2018-02-22T03:07:42.770Z,-3.00
2018-02-22T03:07:43.373Z,-3.05
2018-02-22T03:07:43.972Z,-3.02
2018-02-22T03:08:37.425Z,-3.07
2018-02-22T03:08:38.034Z,-3.04
2018-02-22T03:08:38.624Z,-3.07
2018-02-22T03:08:39.222Z,-3.08
2018-02-22T03:08:39.823Z,-3.08
2018-02-22T03:08:40.422Z,-3.08
2018-02-22T03:08:41.023Z,-3.07
2018-02-22T03:08:41.621Z,-3.02
2018-02-22T03:09:36.102Z,-3.02
2018-02-22T03:09:36.704Z,-3.05
2018-02-22T03:09:37.298Z,-3.05
2018-02-22T03:09:37.897Z,-3.08
2018-02-22T03:09:38.497Z,-3.07
2018-02-22T03:09:39.096Z,-3.07
2018-02-22T03:09:39.698Z,-3.07
2018-02-22T03:09:40.297Z,-3.04
2018-02-22T03:10:33.754Z,-3.00
2018-02-22T03:10:34.352Z,-3.07
2018-02-22T03:10:34.950Z,-3.05
2018-02-22T03:10:35.572Z,-3.05
2018-02-22T03:10:36.149Z,-3.02
2018-02-22T03:10:36.749Z,-3.04
2018-02-22T03:10:37.349Z,-3.04
2018-02-22T03:10:37.949Z,-3.08
2018-02-22T03:11:31.436Z,-3.02
2018-02-22T03:11:32.002Z,-3.08
2018-02-22T03:11:32.601Z,-3.00
2018-02-22T03:11:33.201Z,-3.00
2018-02-22T03:11:33.809Z,-2.97
2018-02-22T03:11:34.399Z,-3.00
2018-02-22T03:11:35.001Z,-2.99
2018-02-22T03:11:35.600Z,-3.07
2018-02-22T03:12:29.060Z,-3.07
2018-02-22T03:12:29.656Z,-2.99
2018-02-22T03:12:30.254Z,-3.05
2018-02-22T03:12:30.855Z,-3.00
2018-02-22T03:12:31.454Z,-2.94
2018-02-22T03:12:32.053Z,-2.97
2018-02-22T03:12:32.653Z,-3.05
2018-02-22T03:12:33.253Z,-3.05
2018-02-22T03:13:27.732Z,-3.00
2018-02-22T03:13:28.334Z,-2.97
2018-02-22T03:13:28.929Z,-2.96
2018-02-22T03:13:29.528Z,-3.04
2018-02-22T03:13:30.128Z,-3.02
2018-02-22T03:13:30.726Z,-2.94
2018-02-22T03:13:31.326Z,-2.99
2018-02-22T03:13:31.928Z,-2.94
2018-02-22T03:14:26.410Z,-2.96
2018-02-22T03:14:27.005Z,-2.96
2018-02-22T03:14:27.604Z,-2.89
2018-02-22T03:14:28.205Z,-2.97
2018-02-22T03:14:28.803Z,-2.90
2018-02-22T03:14:29.403Z,-2.87
2018-02-22T03:14:30.003Z,-2.92
2018-02-22T03:14:30.604Z,-2.94
2018-02-22T03:15:24.062Z,-3.02
2018-02-22T03:15:24.659Z,-2.96
2018-02-22T03:15:25.257Z,-2.96
2018-02-22T03:15:25.857Z,-2.93
2018-02-22T03:15:26.457Z,-2.94
2018-02-22T03:15:27.057Z,-2.94
2018-02-22T03:15:27.663Z,-2.97
2018-02-22T03:15:28.256Z,-2.97
2018-02-22T03:16:21.711Z,-2.86
2018-02-22T03:16:22.310Z,-2.89
2018-02-22T03:16:22.908Z,-2.94
2018-02-22T03:16:23.509Z,-2.94
2018-02-22T03:16:24.108Z,-2.92
2018-02-22T03:16:24.708Z,-2.94
2018-02-22T03:16:25.309Z,-2.92
2018-02-22T03:16:25.907Z,-3.00
2018-02-22T03:17:20.416Z,-2.93
2018-02-22T03:17:20.987Z,-2.87
2018-02-22T03:17:21.585Z,-2.89
2018-02-22T03:17:22.184Z,-2.90
2018-02-22T03:17:22.781Z,-2.87
2018-02-22T03:17:23.382Z,-2.85
2018-02-22T03:17:23.981Z,-2.90
2018-02-22T03:17:24.582Z,-2.93
2018-02-22T03:18:19.064Z,-2.81
2018-02-22T03:18:19.662Z,-2.81
2018-02-22T03:18:20.260Z,-2.78
2018-02-22T03:18:20.862Z,-2.87
2018-02-22T03:18:21.479Z,-2.79
2018-02-22T03:18:22.059Z,-2.86
2018-02-22T03:18:22.657Z,-2.86
2018-02-22T03:18:23.258Z,-2.81
2018-02-22T03:19:16.741Z,-2.86
2018-02-22T03:19:17.313Z,-2.81
2018-02-22T03:19:17.912Z,-2.79
2018-02-22T03:19:18.511Z,-2.81
2018-02-22T03:19:19.110Z,-2.86
2018-02-22T03:19:19.712Z,-2.79
2018-02-22T03:19:20.338Z,-2.72
2018-02-22T03:19:20.912Z,-2.81
2018-02-22T03:20:26.040Z,-2.75
2018-02-22T03:20:26.644Z,-2.69
2018-02-22T03:20:27.236Z,-2.74
2018-02-22T03:20:27.836Z,-2.74
2018-02-22T03:20:28.436Z,-2.68
2018-02-22T03:20:29.039Z,-2.69
2018-02-22T03:20:29.636Z,-2.69
2018-02-22T03:20:30.236Z,-2.75
2018-02-22T03:21:24.715Z,-2.61
2018-02-22T03:21:25.312Z,-2.76
2018-02-22T03:21:25.911Z,-2.64
2018-02-22T03:21:26.510Z,-2.71
2018-02-22T03:21:27.115Z,-2.71
2018-02-22T03:21:27.710Z,-2.58
2018-02-22T03:21:28.309Z,-2.61
2018-02-22T03:21:28.910Z,-2.61
2018-02-22T03:22:22.400Z,-2.69
2018-02-22T03:22:22.966Z,-2.64
2018-02-22T03:22:23.564Z,-2.60
2018-02-22T03:22:24.165Z,-2.63
2018-02-22T03:22:24.763Z,-2.64
2018-02-22T03:22:25.363Z,-2.63
2018-02-22T03:22:25.963Z,-2.57
2018-02-22T03:22:26.563Z,-2.58
2018-02-22T03:23:21.042Z,-2.61
2018-02-22T03:23:21.642Z,-2.60
2018-02-22T03:23:22.237Z,-2.58
2018-02-22T03:23:22.838Z,-2.63
2018-02-22T03:23:23.441Z,-2.66
2018-02-22T03:23:24.039Z,-2.57
2018-02-22T03:23:24.637Z,-2.60
2018-02-22T03:23:25.239Z,-2.60
2018-02-22T03:24:18.694Z,-2.63
2018-02-22T03:24:19.293Z,-2.61
2018-02-22T03:24:19.893Z,-2.66
2018-02-22T03:24:20.491Z,-2.58
2018-02-22T03:24:21.091Z,-2.60
2018-02-22T03:24:21.691Z,-2.61
2018-02-22T03:24:22.290Z,-2.60
2018-02-22T03:24:22.896Z,-2.58
2018-02-22T03:25:16.346Z,-2.64
2018-02-22T03:25:16.944Z,-2.63
2018-02-22T03:25:17.546Z,-2.63
2018-02-22T03:25:18.144Z,-2.61
2018-02-22T03:25:18.742Z,-2.58
2018-02-22T03:25:19.340Z,-2.64
2018-02-22T03:25:19.941Z,-2.63
2018-02-22T03:25:20.541Z,-2.60
2018-02-22T03:26:13.997Z,-2.71
2018-02-22T03:26:14.597Z,-2.72
2018-02-22T03:26:15.194Z,-2.64
2018-02-22T03:26:15.794Z,-2.61
2018-02-22T03:26:16.393Z,-2.64
2018-02-22T03:26:16.996Z,-2.61
2018-02-22T03:26:17.592Z,-2.60
2018-02-22T03:26:18.194Z,-2.68
2018-02-22T03:27:12.674Z,-2.60
2018-02-22T03:27:13.273Z,-2.61
2018-02-22T03:27:13.869Z,-2.71
2018-02-22T03:27:14.468Z,-2.75
2018-02-22T03:27:15.068Z,-2.76
2018-02-22T03:27:15.668Z,-2.69
2018-02-22T03:27:16.267Z,-2.64
2018-02-22T03:27:16.867Z,-2.60
2018-02-22T03:28:11.372Z,-2.72
2018-02-22T03:28:11.947Z,-2.63
2018-02-22T03:28:12.545Z,-2.63
2018-02-22T03:28:13.144Z,-2.71
2018-02-22T03:28:13.742Z,-2.64
2018-02-22T03:28:14.348Z,-2.63
2018-02-22T03:28:14.944Z,-2.66
2018-02-22T03:28:15.551Z,-2.72
2018-02-22T03:29:09.008Z,-2.71
2018-02-22T03:29:09.601Z,-2.64
2018-02-22T03:29:10.199Z,-2.64
2018-02-22T03:29:10.798Z,-2.68
2018-02-22T03:29:11.398Z,-2.66
2018-02-22T03:29:11.998Z,-2.74
2018-02-22T03:29:12.609Z,-2.58
2018-02-22T03:29:13.198Z,-2.78
2018-02-22T03:30:07.679Z,-2.69
2018-02-22T03:30:08.272Z,-2.69
2018-02-22T03:30:08.881Z,-2.72
2018-02-22T03:30:09.470Z,-2.72
2018-02-22T03:30:10.072Z,-2.60
2018-02-22T03:30:10.672Z,-2.71
2018-02-22T03:30:11.271Z,-2.57
2018-02-22T03:30:11.873Z,-2.75
2018-02-22T03:31:05.329Z,-2.57
2018-02-22T03:31:05.928Z,-2.63
2018-02-22T03:31:06.526Z,-2.76
2018-02-22T03:31:07.130Z,-2.60
2018-02-22T03:31:07.725Z,-2.66
2018-02-22T03:31:08.325Z,-2.60